sensor_id;sensor_type;location;lat;lon;timestamp;P1;durP1;ratioP1;P2;durP2;ratioP2
30036;SDS011;36325;51.512;-0.382;2022-08-30T00:01:07;10.02;;;2.60;;
30036;SDS011;36325;51.512;-0.382;2022-08-30T00:03:41;6.30;;;2.45;;
30036;SDS011;36325;51.512;-0.382;2022-08-30T00:06:14;16.77;;;2.58;;
30036;SDS011;36325;51.512;-0.382;2022-08-30T00:08:43;4.43;;;2.15;;
30036;SDS011;36325;51.512;-0.382;2022-08-30T00:11:12;14.60;;;2.45;;
30036;SDS011;36325;51.512;-0.382;2022-08-30T00:13:42;13.02;;;3.90;;
30036;SDS011;36325;51.512;-0.382;2022-08-30T00:16:10;8.02;;;2.38;;
30036;SDS011;36325;51.512;-0.382;2022-08-30T00:18:38;9.57;;;2.40;;
30036;SDS011;36325;51.512;-0.382;2022-08-30T00:21:08;10.00;;;2.78;;
30036;SDS011;36325;51.512;-0.382;2022-08-30T00:23:36;11.88;;;2.53;;
30036;SDS011;36325;51.512;-0.382;2022-08-30T00:26:05;9.30;;;2.40;;
30036;SDS011;36325;51.512;-0.382;2022-08-30T00:28:33;7.45;;;2.38;;
30036;SDS011;36325;51.512;-0.382;2022-08-30T00:31:02;7.03;;;2.45;;
30036;SDS011;36325;51.512;-0.382;2022-08-30T00:33:30;8.68;;;2.05;;
30036;SDS011;36325;51.512;-0.382;2022-08-30T00:35:57;9.82;;;2.92;;
30036;SDS011;36325;51.512;-0.382;2022-08-30T00:38:25;10.05;;;2.30;;
30036;SDS011;36325;51.512;-0.382;2022-08-30T00:40:52;6.07;;;2.47;;
30036;SDS011;36325;51.512;-0.382;2022-08-30T00:43:23;7.53;;;2.80;;
30036;SDS011;36325;51.512;-0.382;2022-08-30T00:45:53;9.45;;;2.50;;
30036;SDS011;36325;51.512;-0.382;2022-08-30T00:48:21;8.27;;;2.25;;
30036;SDS011;36325;51.512;-0.382;2022-08-30T00:50:50;6.57;;;2.17;;
30036;SDS011;36325;51.512;-0.382;2022-08-30T00:53:23;12.20;;;3.42;;
30036;SDS011;36325;51.512;-0.382;2022-08-30T00:55:53;9.70;;;2.27;;
30036;SDS011;36325;51.512;-0.382;2022-08-30T00:58:21;4.88;;;2.95;;
30036;SDS011;36325;51.512;-0.382;2022-08-30T01:00:54;8.68;;;2.63;;
30036;SDS011;36325;51.512;-0.382;2022-08-30T01:03:24;6.20;;;2.65;;
30036;SDS011;36325;51.512;-0.382;2022-08-30T01:05:52;16.77;;;2.63;;
30036;SDS011;36325;51.512;-0.382;2022-08-30T01:08:21;13.25;;;2.83;;
30036;SDS011;36325;51.512;-0.382;2022-08-30T01:10:49;6.68;;;2.90;;
30036;SDS011;36325;51.512;-0.382;2022-08-30T01:13:18;5.30;;;2.40;;
30036;SDS011;36325;51.512;-0.382;2022-08-30T01:15:47;7.50;;;2.50;;
30036;SDS011;36325;51.512;-0.382;2022-08-30T01:18:16;7.10;;;2.17;;
30036;SDS011;36325;51.512;-0.382;2022-08-30T01:20:47;6.93;;;2.05;;
30036;SDS011;36325;51.512;-0.382;2022-08-30T01:23:21;3.95;;;2.20;;
30036;SDS011;36325;51.512;-0.382;2022-08-30T01:25:51;7.32;;;2.20;;
30036;SDS011;36325;51.512;-0.382;2022-08-30T01:28:21;8.35;;;2.53;;
30036;SDS011;36325;51.512;-0.382;2022-08-30T01:30:50;15.17;;;2.70;;
30036;SDS011;36325;51.512;-0.382;2022-08-30T01:33:18;8.25;;;2.47;;
30036;SDS011;36325;51.512;-0.382;2022-08-30T01:35:54;9.82;;;2.35;;
30036;SDS011;36325;51.512;-0.382;2022-08-30T01:38:25;11.57;;;2.45;;
30036;SDS011;36325;51.512;-0.382;2022-08-30T01:41:06;8.25;;;2.22;;
30036;SDS011;36325;51.512;-0.382;2022-08-30T01:43:40;9.60;;;3.20;;
30036;SDS011;36325;51.512;-0.382;2022-08-30T01:46:08;8.13;;;2.00;;
30036;SDS011;36325;51.512;-0.382;2022-08-30T01:48:37;14.70;;;2.30;;
30036;SDS011;36325;51.512;-0.382;2022-08-30T01:51:09;9.82;;;2.40;;
30036;SDS011;36325;51.512;-0.382;2022-08-30T01:53:38;8.20;;;2.95;;
30036;SDS011;36325;51.512;-0.382;2022-08-30T01:56:07;10.88;;;3.10;;
30036;SDS011;36325;51.512;-0.382;2022-08-30T01:58:35;14.65;;;2.15;;
30036;SDS011;36325;51.512;-0.382;2022-08-30T02:01:04;5.65;;;2.17;;
30036;SDS011;36325;51.512;-0.382;2022-08-30T02:03:35;11.30;;;2.27;;
30036;SDS011;36325;51.512;-0.382;2022-08-30T02:06:03;4.20;;;2.50;;
30036;SDS011;36325;51.512;-0.382;2022-08-30T02:08:32;4.18;;;2.03;;
30036;SDS011;36325;51.512;-0.382;2022-08-30T02:11:00;4.15;;;2.15;;
30036;SDS011;36325;51.512;-0.382;2022-08-30T02:13:28;4.75;;;2.38;;
30036;SDS011;36325;51.512;-0.382;2022-08-30T02:15:56;6.95;;;2.40;;
30036;SDS011;36325;51.512;-0.382;2022-08-30T02:18:23;7.78;;;2.42;;
30036;SDS011;36325;51.512;-0.382;2022-08-30T02:20:51;13.07;;;3.20;;
30036;SDS011;36325;51.512;-0.382;2022-08-30T02:23:19;19.10;;;2.75;;
30036;SDS011;36325;51.512;-0.382;2022-08-30T02:25:46;8.73;;;2.83;;
30036;SDS011;36325;51.512;-0.382;2022-08-30T02:28:13;8.55;;;2.50;;
30036;SDS011;36325;51.512;-0.382;2022-08-30T02:30:41;5.57;;;2.33;;
30036;SDS011;36325;51.512;-0.382;2022-08-30T02:33:08;7.25;;;2.80;;
30036;SDS011;36325;51.512;-0.382;2022-08-30T02:35:35;11.90;;;2.80;;
30036;SDS011;36325;51.512;-0.382;2022-08-30T02:38:04;9.85;;;2.47;;
30036;SDS011;36325;51.512;-0.382;2022-08-30T02:40:32;6.28;;;3.05;;
30036;SDS011;36325;51.512;-0.382;2022-08-30T02:43:00;13.75;;;3.05;;
30036;SDS011;36325;51.512;-0.382;2022-08-30T02:45:28;15.40;;;3.92;;
30036;SDS011;36325;51.512;-0.382;2022-08-30T02:47:56;6.60;;;3.22;;
30036;SDS011;36325;51.512;-0.382;2022-08-30T02:50:24;7.93;;;2.67;;
30036;SDS011;36325;51.512;-0.382;2022-08-30T02:52:52;12.10;;;2.97;;
30036;SDS011;36325;51.512;-0.382;2022-08-30T02:55:20;10.38;;;2.50;;
30036;SDS011;36325;51.512;-0.382;2022-08-30T02:57:48;5.50;;;2.40;;
30036;SDS011;36325;51.512;-0.382;2022-08-30T03:00:17;8.77;;;2.97;;
30036;SDS011;36325;51.512;-0.382;2022-08-30T03:02:46;11.88;;;2.92;;
30036;SDS011;36325;51.512;-0.382;2022-08-30T03:05:16;12.52;;;2.70;;
30036;SDS011;36325;51.512;-0.382;2022-08-30T03:07:44;6.22;;;2.97;;
30036;SDS011;36325;51.512;-0.382;2022-08-30T03:10:13;16.05;;;3.05;;
30036;SDS011;36325;51.512;-0.382;2022-08-30T03:12:42;10.10;;;2.88;;
30036;SDS011;36325;51.512;-0.382;2022-08-30T03:15:10;12.90;;;2.22;;
30036;SDS011;36325;51.512;-0.382;2022-08-30T03:17:39;7.68;;;2.10;;
30036;SDS011;36325;51.512;-0.382;2022-08-30T03:20:08;8.93;;;2.80;;
30036;SDS011;36325;51.512;-0.382;2022-08-30T03:22:37;8.02;;;3.03;;
30036;SDS011;36325;51.512;-0.382;2022-08-30T03:25:05;8.82;;;2.60;;
30036;SDS011;36325;51.512;-0.382;2022-08-30T03:27:33;10.80;;;3.03;;
30036;SDS011;36325;51.512;-0.382;2022-08-30T03:30:01;7.93;;;2.13;;
30036;SDS011;36325;51.512;-0.382;2022-08-30T03:32:30;11.85;;;2.78;;
30036;SDS011;36325;51.512;-0.382;2022-08-30T03:34:58;11.45;;;3.15;;
30036;SDS011;36325;51.512;-0.382;2022-08-30T03:37:25;10.05;;;3.05;;
30036;SDS011;36325;51.512;-0.382;2022-08-30T03:39:53;11.82;;;2.60;;
30036;SDS011;36325;51.512;-0.382;2022-08-30T03:42:21;8.20;;;3.50;;
30036;SDS011;36325;51.512;-0.382;2022-08-30T03:44:48;7.75;;;2.78;;
30036;SDS011;36325;51.512;-0.382;2022-08-30T03:47:16;10.65;;;2.78;;
30036;SDS011;36325;51.512;-0.382;2022-08-30T03:49:43;10.95;;;2.97;;
30036;SDS011;36325;51.512;-0.382;2022-08-30T03:52:10;7.18;;;2.88;;
30036;SDS011;36325;51.512;-0.382;2022-08-30T03:54:37;7.60;;;2.47;;
30036;SDS011;36325;51.512;-0.382;2022-08-30T03:57:05;10.98;;;2.83;;
30036;SDS011;36325;51.512;-0.382;2022-08-30T03:59:33;9.57;;;2.80;;
30036;SDS011;36325;51.512;-0.382;2022-08-30T04:02:01;10.88;;;2.25;;
30036;SDS011;36325;51.512;-0.382;2022-08-30T04:04:28;6.95;;;3.30;;
30036;SDS011;36325;51.512;-0.382;2022-08-30T04:06:55;14.55;;;2.78;;
30036;SDS011;36325;51.512;-0.382;2022-08-30T04:09:22;7.93;;;3.08;;
30036;SDS011;36325;51.512;-0.382;2022-08-30T04:11:50;7.95;;;2.78;;
30036;SDS011;36325;51.512;-0.382;2022-08-30T04:14:17;6.75;;;2.03;;
30036;SDS011;36325;51.512;-0.382;2022-08-30T04:16:44;6.18;;;2.40;;
30036;SDS011;36325;51.512;-0.382;2022-08-30T04:19:11;8.77;;;2.42;;
30036;SDS011;36325;51.512;-0.382;2022-08-30T04:21:39;7.80;;;2.67;;
30036;SDS011;36325;51.512;-0.382;2022-08-30T04:24:08;6.28;;;2.45;;
30036;SDS011;36325;51.512;-0.382;2022-08-30T04:26:35;9.40;;;2.50;;
30036;SDS011;36325;51.512;-0.382;2022-08-30T04:29:02;8.27;;;2.50;;
30036;SDS011;36325;51.512;-0.382;2022-08-30T04:31:30;17.70;;;2.80;;
30036;SDS011;36325;51.512;-0.382;2022-08-30T04:33:57;4.97;;;2.20;;
30036;SDS011;36325;51.512;-0.382;2022-08-30T04:36:24;11.50;;;3.20;;
30036;SDS011;36325;51.512;-0.382;2022-08-30T04:38:51;11.32;;;2.70;;
30036;SDS011;36325;51.512;-0.382;2022-08-30T04:41:19;11.13;;;2.65;;
30036;SDS011;36325;51.512;-0.382;2022-08-30T04:43:50;7.78;;;2.55;;
30036;SDS011;36325;51.512;-0.382;2022-08-30T04:46:17;4.90;;;2.45;;
30036;SDS011;36325;51.512;-0.382;2022-08-30T04:48:45;5.03;;;2.38;;
30036;SDS011;36325;51.512;-0.382;2022-08-30T04:51:14;11.18;;;2.33;;
30036;SDS011;36325;51.512;-0.382;2022-08-30T04:53:42;12.45;;;3.55;;
30036;SDS011;36325;51.512;-0.382;2022-08-30T04:56:15;14.00;;;3.03;;
30036;SDS011;36325;51.512;-0.382;2022-08-30T04:58:45;6.97;;;2.30;;
30036;SDS011;36325;51.512;-0.382;2022-08-30T05:01:14;5.90;;;2.22;;
30036;SDS011;36325;51.512;-0.382;2022-08-30T05:03:44;7.93;;;2.87;;
30036;SDS011;36325;51.512;-0.382;2022-08-30T05:06:12;8.13;;;3.28;;
30036;SDS011;36325;51.512;-0.382;2022-08-30T05:08:40;17.27;;;3.35;;
30036;SDS011;36325;51.512;-0.382;2022-08-30T05:11:11;11.73;;;2.80;;
30036;SDS011;36325;51.512;-0.382;2022-08-30T05:13:39;7.97;;;3.08;;
30036;SDS011;36325;51.512;-0.382;2022-08-30T05:16:06;8.35;;;2.50;;
30036;SDS011;36325;51.512;-0.382;2022-08-30T05:18:35;14.77;;;3.13;;
30036;SDS011;36325;51.512;-0.382;2022-08-30T05:23:30;18.30;;;2.92;;
30036;SDS011;36325;51.512;-0.382;2022-08-30T05:25:57;10.20;;;3.25;;
30036;SDS011;36325;51.512;-0.382;2022-08-30T05:28:24;7.20;;;2.35;;
30036;SDS011;36325;51.512;-0.382;2022-08-30T05:30:51;15.82;;;2.92;;
30036;SDS011;36325;51.512;-0.382;2022-08-30T05:33:18;11.23;;;3.13;;
30036;SDS011;36325;51.512;-0.382;2022-08-30T05:35:46;9.65;;;2.45;;
30036;SDS011;36325;51.512;-0.382;2022-08-30T05:38:13;13.18;;;3.20;;
30036;SDS011;36325;51.512;-0.382;2022-08-30T05:40:41;4.53;;;2.53;;
30036;SDS011;36325;51.512;-0.382;2022-08-30T05:43:09;7.53;;;2.40;;
30036;SDS011;36325;51.512;-0.382;2022-08-30T05:45:37;7.82;;;2.00;;
30036;SDS011;36325;51.512;-0.382;2022-08-30T05:48:04;10.50;;;3.63;;
30036;SDS011;36325;51.512;-0.382;2022-08-30T05:50:32;8.80;;;3.10;;
30036;SDS011;36325;51.512;-0.382;2022-08-30T05:53:02;13.25;;;2.67;;
30036;SDS011;36325;51.512;-0.382;2022-08-30T05:55:29;11.60;;;3.42;;
30036;SDS011;36325;51.512;-0.382;2022-08-30T05:57:56;8.70;;;2.97;;
30036;SDS011;36325;51.512;-0.382;2022-08-30T06:00:24;14.95;;;2.85;;
30036;SDS011;36325;51.512;-0.382;2022-08-30T06:02:52;7.88;;;2.55;;
30036;SDS011;36325;51.512;-0.382;2022-08-30T06:05:20;12.20;;;2.33;;
30036;SDS011;36325;51.512;-0.382;2022-08-30T06:07:47;11.38;;;3.05;;
30036;SDS011;36325;51.512;-0.382;2022-08-30T06:10:15;14.75;;;2.90;;
30036;SDS011;36325;51.512;-0.382;2022-08-30T06:12:42;14.15;;;2.50;;
30036;SDS011;36325;51.512;-0.382;2022-08-30T06:15:10;8.60;;;2.80;;
30036;SDS011;36325;51.512;-0.382;2022-08-30T06:17:37;9.05;;;2.22;;
30036;SDS011;36325;51.512;-0.382;2022-08-30T06:20:05;7.68;;;3.05;;
30036;SDS011;36325;51.512;-0.382;2022-08-30T06:22:33;12.05;;;2.65;;
30036;SDS011;36325;51.512;-0.382;2022-08-30T06:25:00;7.60;;;2.70;;
30036;SDS011;36325;51.512;-0.382;2022-08-30T06:27:28;8.13;;;2.38;;
30036;SDS011;36325;51.512;-0.382;2022-08-30T06:29:56;8.98;;;2.35;;
30036;SDS011;36325;51.512;-0.382;2022-08-30T06:32:24;17.02;;;3.20;;
30036;SDS011;36325;51.512;-0.382;2022-08-30T06:34:51;7.10;;;2.47;;
30036;SDS011;36325;51.512;-0.382;2022-08-30T06:37:19;5.75;;;2.75;;
30036;SDS011;36325;51.512;-0.382;2022-08-30T06:39:50;9.73;;;2.30;;
30036;SDS011;36325;51.512;-0.382;2022-08-30T06:42:17;10.60;;;3.15;;
30036;SDS011;36325;51.512;-0.382;2022-08-30T06:44:44;7.78;;;2.60;;
30036;SDS011;36325;51.512;-0.382;2022-08-30T06:47:11;7.53;;;2.67;;
30036;SDS011;36325;51.512;-0.382;2022-08-30T06:49:39;7.68;;;2.95;;
30036;SDS011;36325;51.512;-0.382;2022-08-30T06:52:06;13.77;;;3.50;;
30036;SDS011;36325;51.512;-0.382;2022-08-30T06:54:33;11.10;;;2.30;;
30036;SDS011;36325;51.512;-0.382;2022-08-30T06:57:00;7.95;;;2.85;;
30036;SDS011;36325;51.512;-0.382;2022-08-30T06:59:27;12.95;;;3.85;;
30036;SDS011;36325;51.512;-0.382;2022-08-30T07:01:55;10.00;;;2.80;;
30036;SDS011;36325;51.512;-0.382;2022-08-30T07:04:23;10.80;;;2.72;;
30036;SDS011;36325;51.512;-0.382;2022-08-30T07:06:51;8.10;;;2.63;;
30036;SDS011;36325;51.512;-0.382;2022-08-30T07:09:19;14.23;;;2.95;;
30036;SDS011;36325;51.512;-0.382;2022-08-30T07:11:48;9.40;;;2.70;;
30036;SDS011;36325;51.512;-0.382;2022-08-30T07:14:15;6.25;;;2.33;;
30036;SDS011;36325;51.512;-0.382;2022-08-30T07:16:42;9.10;;;3.05;;
30036;SDS011;36325;51.512;-0.382;2022-08-30T07:19:10;9.35;;;2.75;;
30036;SDS011;36325;51.512;-0.382;2022-08-30T07:21:44;9.02;;;2.55;;
30036;SDS011;36325;51.512;-0.382;2022-08-30T07:24:14;13.60;;;3.40;;
30036;SDS011;36325;51.512;-0.382;2022-08-30T07:26:47;16.48;;;2.88;;
30036;SDS011;36325;51.512;-0.382;2022-08-30T07:29:21;14.07;;;2.53;;
30036;SDS011;36325;51.512;-0.382;2022-08-30T07:31:48;12.48;;;2.90;;
30036;SDS011;36325;51.512;-0.382;2022-08-30T07:34:16;4.32;;;1.98;;
30036;SDS011;36325;51.512;-0.382;2022-08-30T07:36:45;11.82;;;2.50;;
30036;SDS011;36325;51.512;-0.382;2022-08-30T07:39:13;7.63;;;2.33;;
30036;SDS011;36325;51.512;-0.382;2022-08-30T07:41:40;12.88;;;2.90;;
30036;SDS011;36325;51.512;-0.382;2022-08-30T07:44:09;12.38;;;2.67;;
30036;SDS011;36325;51.512;-0.382;2022-08-30T07:46:37;16.83;;;2.88;;
30036;SDS011;36325;51.512;-0.382;2022-08-30T07:49:05;5.13;;;2.30;;
30036;SDS011;36325;51.512;-0.382;2022-08-30T07:51:36;10.13;;;2.85;;
30036;SDS011;36325;51.512;-0.382;2022-08-30T07:54:04;9.85;;;2.80;;
30036;SDS011;36325;51.512;-0.382;2022-08-30T07:56:32;7.25;;;2.10;;
30036;SDS011;36325;51.512;-0.382;2022-08-30T07:59:00;13.80;;;3.03;;
30036;SDS011;36325;51.512;-0.382;2022-08-30T08:01:28;11.63;;;3.00;;
30036;SDS011;36325;51.512;-0.382;2022-08-30T08:03:55;7.10;;;2.63;;
30036;SDS011;36325;51.512;-0.382;2022-08-30T08:06:22;17.92;;;2.22;;
30036;SDS011;36325;51.512;-0.382;2022-08-30T08:08:50;8.52;;;2.30;;
30036;SDS011;36325;51.512;-0.382;2022-08-30T08:11:19;9.48;;;2.67;;
30036;SDS011;36325;51.512;-0.382;2022-08-30T08:13:49;13.40;;;2.35;;
30036;SDS011;36325;51.512;-0.382;2022-08-30T08:16:21;8.23;;;2.90;;
30036;SDS011;36325;51.512;-0.382;2022-08-30T08:18:50;10.02;;;2.72;;
30036;SDS011;36325;51.512;-0.382;2022-08-30T08:21:18;7.07;;;2.28;;
30036;SDS011;36325;51.512;-0.382;2022-08-30T08:23:47;9.63;;;2.40;;
30036;SDS011;36325;51.512;-0.382;2022-08-30T08:26:14;14.85;;;2.65;;
30036;SDS011;36325;51.512;-0.382;2022-08-30T08:28:41;20.33;;;2.78;;
30036;SDS011;36325;51.512;-0.382;2022-08-30T08:31:14;11.48;;;2.63;;
30036;SDS011;36325;51.512;-0.382;2022-08-30T08:33:43;13.32;;;1.80;;
30036;SDS011;36325;51.512;-0.382;2022-08-30T08:36:11;11.50;;;3.25;;
30036;SDS011;36325;51.512;-0.382;2022-08-30T08:38:38;15.38;;;2.55;;
30036;SDS011;36325;51.512;-0.382;2022-08-30T08:43:58;11.27;;;2.70;;
30036;SDS011;36325;51.512;-0.382;2022-08-30T08:46:30;11.63;;;2.28;;
30036;SDS011;36325;51.512;-0.382;2022-08-30T08:49:13;8.82;;;1.95;;
30036;SDS011;36325;51.512;-0.382;2022-08-30T08:51:42;9.88;;;2.58;;
30036;SDS011;36325;51.512;-0.382;2022-08-30T08:54:45;7.80;;;2.30;;
30036;SDS011;36325;51.512;-0.382;2022-08-30T08:57:21;6.93;;;2.15;;
30036;SDS011;36325;51.512;-0.382;2022-08-30T08:59:50;10.65;;;2.47;;
30036;SDS011;36325;51.512;-0.382;2022-08-30T09:02:26;10.70;;;3.00;;
30036;SDS011;36325;51.512;-0.382;2022-08-30T09:05:00;9.38;;;2.03;;
30036;SDS011;36325;51.512;-0.382;2022-08-30T09:07:29;8.68;;;2.13;;
30036;SDS011;36325;51.512;-0.382;2022-08-30T09:10:02;5.10;;;2.15;;
30036;SDS011;36325;51.512;-0.382;2022-08-30T09:12:30;7.18;;;2.25;;
30036;SDS011;36325;51.512;-0.382;2022-08-30T09:17:54;12.85;;;1.60;;
30036;SDS011;36325;51.512;-0.382;2022-08-30T09:20:26;5.53;;;1.65;;
30036;SDS011;36325;51.512;-0.382;2022-08-30T09:23:10;10.10;;;2.60;;
30036;SDS011;36325;51.512;-0.382;2022-08-30T09:25:57;11.00;;;2.28;;
30036;SDS011;36325;51.512;-0.382;2022-08-30T09:28:31;8.23;;;2.65;;
30036;SDS011;36325;51.512;-0.382;2022-08-30T09:31:01;7.03;;;2.67;;
30036;SDS011;36325;51.512;-0.382;2022-08-30T09:33:54;5.68;;;2.42;;
30036;SDS011;36325;51.512;-0.382;2022-08-30T09:39:00;8.45;;;2.72;;
30036;SDS011;36325;51.512;-0.382;2022-08-30T09:41:35;6.13;;;2.38;;
30036;SDS011;36325;51.512;-0.382;2022-08-30T09:44:17;6.82;;;2.33;;
30036;SDS011;36325;51.512;-0.382;2022-08-30T09:46:48;8.40;;;2.67;;
30036;SDS011;36325;51.512;-0.382;2022-08-30T09:54:43;10.32;;;2.47;;
30036;SDS011;36325;51.512;-0.382;2022-08-30T10:00:22;5.95;;;1.95;;
30036;SDS011;36325;51.512;-0.382;2022-08-30T10:05:36;11.50;;;2.08;;
30036;SDS011;36325;51.512;-0.382;2022-08-30T10:11:35;8.10;;;2.20;;
30036;SDS011;36325;51.512;-0.382;2022-08-30T10:14:26;10.05;;;2.47;;
30036;SDS011;36325;51.512;-0.382;2022-08-30T10:17:23;8.02;;;2.92;;
30036;SDS011;36325;51.512;-0.382;2022-08-30T10:30:47;24.95;;;3.88;;
30036;SDS011;36325;51.512;-0.382;2022-08-30T10:33:26;6.68;;;2.40;;
30036;SDS011;36325;51.512;-0.382;2022-08-30T10:36:00;18.02;;;3.92;;
30036;SDS011;36325;51.512;-0.382;2022-08-30T10:38:30;41.05;;;6.05;;
30036;SDS011;36325;51.512;-0.382;2022-08-30T10:41:19;10.05;;;2.25;;
30036;SDS011;36325;51.512;-0.382;2022-08-30T10:46:20;10.23;;;2.05;;
30036;SDS011;36325;51.512;-0.382;2022-08-30T10:48:50;6.63;;;2.03;;
30036;SDS011;36325;51.512;-0.382;2022-08-30T10:51:46;10.95;;;2.63;;
30036;SDS011;36325;51.512;-0.382;2022-08-30T10:57:09;11.55;;;2.80;;
30036;SDS011;36325;51.512;-0.382;2022-08-30T10:59:37;7.40;;;2.50;;
30036;SDS011;36325;51.512;-0.382;2022-08-30T11:08:22;5.95;;;2.70;;
30036;SDS011;36325;51.512;-0.382;2022-08-30T11:10:57;7.25;;;2.00;;
30036;SDS011;36325;51.512;-0.382;2022-08-30T11:13:28;5.53;;;1.75;;
30036;SDS011;36325;51.512;-0.382;2022-08-30T11:16:07;6.30;;;2.20;;
30036;SDS011;36325;51.512;-0.382;2022-08-30T11:18:47;7.40;;;1.77;;
30036;SDS011;36325;51.512;-0.382;2022-08-30T11:24:08;4.85;;;1.52;;
30036;SDS011;36325;51.512;-0.382;2022-08-30T11:42:44;6.78;;;1.92;;
30036;SDS011;36325;51.512;-0.382;2022-08-30T11:47:52;4.72;;;1.70;;
30036;SDS011;36325;51.512;-0.382;2022-08-30T11:50:28;5.18;;;1.50;;
30036;SDS011;36325;51.512;-0.382;2022-08-30T11:55:36;9.30;;;2.05;;
30036;SDS011;36325;51.512;-0.382;2022-08-30T11:58:17;8.73;;;2.15;;
30036;SDS011;36325;51.512;-0.382;2022-08-30T12:04:08;7.40;;;1.75;;
30036;SDS011;36325;51.512;-0.382;2022-08-30T12:09:10;8.73;;;2.08;;
30036;SDS011;36325;51.512;-0.382;2022-08-30T12:12:09;7.35;;;2.60;;
30036;SDS011;36325;51.512;-0.382;2022-08-30T12:14:57;6.60;;;1.90;;
30036;SDS011;36325;51.512;-0.382;2022-08-30T12:17:27;7.95;;;2.58;;
30036;SDS011;36325;51.512;-0.382;2022-08-30T12:20:36;4.75;;;1.40;;
30036;SDS011;36325;51.512;-0.382;2022-08-30T12:23:16;4.40;;;1.60;;
30036;SDS011;36325;51.512;-0.382;2022-08-30T12:26:36;6.00;;;2.43;;
30036;SDS011;36325;51.512;-0.382;2022-08-30T12:29:05;6.70;;;1.70;;
30036;SDS011;36325;51.512;-0.382;2022-08-30T12:31:46;5.55;;;2.15;;
30036;SDS011;36325;51.512;-0.382;2022-08-30T12:34:36;6.43;;;2.00;;
30036;SDS011;36325;51.512;-0.382;2022-08-30T12:37:22;4.68;;;1.80;;
30036;SDS011;36325;51.512;-0.382;2022-08-30T12:40:01;5.32;;;1.98;;
30036;SDS011;36325;51.512;-0.382;2022-08-30T12:42:41;4.93;;;1.73;;
30036;SDS011;36325;51.512;-0.382;2022-08-30T12:45:16;6.57;;;1.98;;
30036;SDS011;36325;51.512;-0.382;2022-08-30T12:47:47;8.27;;;1.70;;
30036;SDS011;36325;51.512;-0.382;2022-08-30T12:50:19;3.38;;;1.70;;
30036;SDS011;36325;51.512;-0.382;2022-08-30T12:53:11;8.32;;;1.85;;
30036;SDS011;36325;51.512;-0.382;2022-08-30T12:55:51;4.13;;;1.83;;
30036;SDS011;36325;51.512;-0.382;2022-08-30T13:09:28;5.00;;;1.60;;
30036;SDS011;36325;51.512;-0.382;2022-08-30T13:12:01;3.28;;;1.15;;
30036;SDS011;36325;51.512;-0.382;2022-08-30T13:14:39;5.88;;;1.60;;
30036;SDS011;36325;51.512;-0.382;2022-08-30T13:17:21;6.72;;;1.33;;
30036;SDS011;36325;51.512;-0.382;2022-08-30T13:19:55;4.80;;;1.50;;
30036;SDS011;36325;51.512;-0.382;2022-08-30T13:22:30;5.07;;;1.67;;
30036;SDS011;36325;51.512;-0.382;2022-08-30T13:25:00;4.80;;;1.33;;
30036;SDS011;36325;51.512;-0.382;2022-08-30T13:27:28;3.40;;;1.30;;
30036;SDS011;36325;51.512;-0.382;2022-08-30T13:29:56;4.30;;;1.25;;
30036;SDS011;36325;51.512;-0.382;2022-08-30T13:32:23;1.85;;;1.20;;
30036;SDS011;36325;51.512;-0.382;2022-08-30T13:34:51;4.32;;;1.77;;
30036;SDS011;36325;51.512;-0.382;2022-08-30T13:37:21;4.43;;;1.60;;
30036;SDS011;36325;51.512;-0.382;2022-08-30T13:40:10;4.65;;;1.48;;
30036;SDS011;36325;51.512;-0.382;2022-08-30T13:42:39;3.60;;;1.50;;
30036;SDS011;36325;51.512;-0.382;2022-08-30T13:45:09;4.53;;;1.65;;
30036;SDS011;36325;51.512;-0.382;2022-08-30T13:47:58;5.00;;;1.55;;
30036;SDS011;36325;51.512;-0.382;2022-08-30T13:50:26;8.18;;;1.20;;
30036;SDS011;36325;51.512;-0.382;2022-08-30T13:52:56;4.60;;;1.70;;
30036;SDS011;36325;51.512;-0.382;2022-08-30T13:55:30;3.92;;;1.25;;
30036;SDS011;36325;51.512;-0.382;2022-08-30T13:57:57;3.47;;;1.33;;
30036;SDS011;36325;51.512;-0.382;2022-08-30T14:00:25;4.32;;;1.67;;
30036;SDS011;36325;51.512;-0.382;2022-08-30T14:02:53;4.43;;;1.63;;
30036;SDS011;36325;51.512;-0.382;2022-08-30T14:05:29;3.63;;;1.35;;
30036;SDS011;36325;51.512;-0.382;2022-08-30T14:08:19;6.50;;;1.65;;
30036;SDS011;36325;51.512;-0.382;2022-08-30T14:11:10;4.53;;;1.60;;
30036;SDS011;36325;51.512;-0.382;2022-08-30T14:13:39;2.88;;;1.20;;
30036;SDS011;36325;51.512;-0.382;2022-08-30T14:16:28;4.78;;;1.77;;
30036;SDS011;36325;51.512;-0.382;2022-08-30T14:18:57;4.40;;;1.40;;
30036;SDS011;36325;51.512;-0.382;2022-08-30T14:21:26;5.50;;;2.00;;
30036;SDS011;36325;51.512;-0.382;2022-08-30T14:23:54;7.68;;;1.90;;
30036;SDS011;36325;51.512;-0.382;2022-08-30T14:26:33;12.52;;;1.90;;
30036;SDS011;36325;51.512;-0.382;2022-08-30T14:29:06;13.18;;;1.67;;
30036;SDS011;36325;51.512;-0.382;2022-08-30T14:31:35;5.95;;;1.40;;
30036;SDS011;36325;51.512;-0.382;2022-08-30T14:34:04;8.38;;;1.90;;
30036;SDS011;36325;51.512;-0.382;2022-08-30T14:36:34;3.80;;;1.70;;
30036;SDS011;36325;51.512;-0.382;2022-08-30T14:39:04;9.80;;;1.95;;
30036;SDS011;36325;51.512;-0.382;2022-08-30T14:41:33;4.30;;;1.30;;
30036;SDS011;36325;51.512;-0.382;2022-08-30T14:44:05;5.80;;;1.83;;
30036;SDS011;36325;51.512;-0.382;2022-08-30T14:46:33;4.43;;;1.45;;
30036;SDS011;36325;51.512;-0.382;2022-08-30T14:49:01;4.97;;;2.20;;
30036;SDS011;36325;51.512;-0.382;2022-08-30T14:51:29;4.97;;;1.63;;
30036;SDS011;36325;51.512;-0.382;2022-08-30T14:53:56;4.38;;;1.70;;
30036;SDS011;36325;51.512;-0.382;2022-08-30T14:56:23;5.50;;;1.77;;
30036;SDS011;36325;51.512;-0.382;2022-08-30T14:58:52;9.98;;;1.48;;
30036;SDS011;36325;51.512;-0.382;2022-08-30T15:01:26;2.30;;;1.40;;
30036;SDS011;36325;51.512;-0.382;2022-08-30T15:03:55;6.38;;;1.60;;
30036;SDS011;36325;51.512;-0.382;2022-08-30T15:06:23;2.55;;;1.45;;
30036;SDS011;36325;51.512;-0.382;2022-08-30T15:08:52;6.15;;;1.80;;
30036;SDS011;36325;51.512;-0.382;2022-08-30T15:11:20;5.20;;;1.60;;
30036;SDS011;36325;51.512;-0.382;2022-08-30T15:13:51;5.65;;;1.50;;
30036;SDS011;36325;51.512;-0.382;2022-08-30T15:16:20;3.42;;;1.70;;
30036;SDS011;36325;51.512;-0.382;2022-08-30T15:18:50;5.13;;;1.63;;
30036;SDS011;36325;51.512;-0.382;2022-08-30T15:21:25;4.35;;;1.42;;
30036;SDS011;36325;51.512;-0.382;2022-08-30T15:24:14;4.88;;;1.58;;
30036;SDS011;36325;51.512;-0.382;2022-08-30T15:26:44;5.22;;;1.75;;
30036;SDS011;36325;51.512;-0.382;2022-08-30T15:29:14;4.50;;;1.67;;
30036;SDS011;36325;51.512;-0.382;2022-08-30T15:31:44;9.35;;;1.80;;
30036;SDS011;36325;51.512;-0.382;2022-08-30T15:34:16;8.98;;;1.83;;
30036;SDS011;36325;51.512;-0.382;2022-08-30T15:36:46;6.35;;;1.40;;
30036;SDS011;36325;51.512;-0.382;2022-08-30T15:39:14;4.68;;;1.30;;
30036;SDS011;36325;51.512;-0.382;2022-08-30T15:41:42;3.25;;;1.50;;
30036;SDS011;36325;51.512;-0.382;2022-08-30T15:44:10;4.45;;;1.30;;
30036;SDS011;36325;51.512;-0.382;2022-08-30T15:46:38;6.57;;;1.88;;
30036;SDS011;36325;51.512;-0.382;2022-08-30T15:49:12;5.85;;;1.45;;
30036;SDS011;36325;51.512;-0.382;2022-08-30T15:51:42;4.65;;;1.42;;
30036;SDS011;36325;51.512;-0.382;2022-08-30T15:54:11;5.15;;;1.50;;
30036;SDS011;36325;51.512;-0.382;2022-08-30T15:56:40;3.50;;;1.48;;
30036;SDS011;36325;51.512;-0.382;2022-08-30T15:59:08;5.30;;;1.65;;
30036;SDS011;36325;51.512;-0.382;2022-08-30T16:01:36;9.20;;;2.13;;
30036;SDS011;36325;51.512;-0.382;2022-08-30T16:04:04;6.85;;;2.05;;
30036;SDS011;36325;51.512;-0.382;2022-08-30T16:06:33;10.55;;;2.30;;
30036;SDS011;36325;51.512;-0.382;2022-08-30T16:09:03;5.43;;;1.75;;
30036;SDS011;36325;51.512;-0.382;2022-08-30T16:11:33;8.00;;;1.92;;
30036;SDS011;36325;51.512;-0.382;2022-08-30T16:14:01;5.60;;;1.40;;
30036;SDS011;36325;51.512;-0.382;2022-08-30T16:16:29;9.35;;;1.52;;
30036;SDS011;36325;51.512;-0.382;2022-08-30T16:18:56;7.50;;;1.42;;
30036;SDS011;36325;51.512;-0.382;2022-08-30T16:21:26;6.10;;;1.77;;